Terminal Aerodrome Forecast
Issued by NWS Duluth, MN

Home | Current Version | Previous Version | Text Only | Print | Product List | Glossary On
Versions: 1 2 3 4 5 6 7 8 9 10 11 12 13 14 15 16 17 18 19 20 21 22 23 24 25 26 27 28 29 30 31
000
FTUS43 KDLH 131737
TAFINL
TAF
KINL 131737Z 1318/1418 04007KT 2SM -SN OVC015
     FM132100 01006KT 5SM -SN OVC015
     FM140100 35004KT P6SM BKN015 OVC030
     FM140600 VRB03KT P6SM BKN015
     FM141000 30004KT 5SM -SN OVC015=

USA.gov is the U.S. government's official web portal to all federal, state and local government web resources and services.